createdAt,value
2022-09-03T00:02:19.438Z,101164.90
2022-09-03T00:05:05.531Z,101169.52
2022-09-03T00:07:58.577Z,101171.92
2022-09-03T00:10:52.465Z,101162.57
2022-09-03T00:13:29.543Z,101152.69
2022-09-03T00:16:00.187Z,101145.77
2022-09-03T00:18:33.156Z,101143.05
2022-09-03T00:21:10.659Z,101144.55
2022-09-03T00:23:41.907Z,101143.69
2022-09-03T00:26:23.627Z,101148.20
2022-09-03T00:29:00.259Z,101155.67
2022-09-03T00:31:39.294Z,101159.05
2022-09-03T00:34:21.811Z,101169.80
2022-09-03T00:36:50.729Z,101157.08
2022-09-03T00:39:22.810Z,101161.11
2022-09-03T00:42:24.109Z,101167.73
2022-09-03T00:45:11.636Z,101169.83
2022-09-03T00:48:01.528Z,101165.48
2022-09-03T00:50:52.019Z,101150.42
2022-09-03T00:53:35.179Z,101139.09
2022-09-03T00:56:13.358Z,101136.84
2022-09-03T00:58:55.373Z,101134.91
2022-09-03T01:01:41.699Z,101131.77
2022-09-03T01:04:13.415Z,101129.65
2022-09-03T01:06:53.407Z,101126.86
2022-09-03T01:09:56.744Z,101129.73
2022-09-03T01:12:33.766Z,101125.77
2022-09-03T01:15:12.873Z,101122.41
2022-09-03T01:17:47.396Z,101129.02
2022-09-03T01:20:38.100Z,101125.70
2022-09-03T01:23:29.929Z,101120.13
2022-09-03T01:26:31.606Z,101116.11
2022-09-03T01:29:19.015Z,101114.91
2022-09-03T01:32:04.903Z,101118.06
2022-09-03T01:34:33.351Z,101111.56
2022-09-03T01:37:04.956Z,101111.38
2022-09-03T01:39:39.802Z,101117.88
2022-09-03T01:42:37.435Z,101119.25
2022-09-03T01:45:29.778Z,101118.23
2022-09-03T01:48:15.388Z,101114.78
2022-09-03T01:50:50.314Z,101116.38
2022-09-03T01:53:25.599Z,101118.52
2022-09-03T01:56:23.099Z,101114.50
2022-09-03T01:59:03.149Z,101114.80
2022-09-03T02:01:42.746Z,101108.49
2022-09-03T02:04:20.400Z,101109.91
2022-09-03T02:06:49.282Z,101106.56
2022-09-03T02:09:19.622Z,101106.36
2022-09-03T02:12:17.125Z,101111.23
2022-09-03T02:14:46.492Z,101118.59
2022-09-03T02:17:15.044Z,101121.69
2022-09-03T02:19:43.779Z,101129.21
2022-09-03T02:22:13.564Z,101127.79
2022-09-03T02:24:42.342Z,101128.48
2022-09-03T02:27:11.280Z,101132.02
2022-09-03T02:29:39.806Z,101135.33
2022-09-03T02:32:08.530Z,101136.00
2022-09-03T02:34:37.030Z,101136.70
2022-09-03T02:37:16.627Z,101147.19
2022-09-03T02:39:45.795Z,101151.73
2022-09-03T02:42:16.492Z,101151.90
2022-09-03T02:45:08.625Z,101150.85
2022-09-03T02:47:41.381Z,101146.72
2022-09-03T02:50:11.011Z,101135.90
2022-09-03T02:52:39.721Z,101133.30
2022-09-03T02:55:09.896Z,101126.15
2022-09-03T02:57:38.793Z,101116.94
2022-09-03T03:00:08.958Z,101106.11
2022-09-03T03:02:37.724Z,101111.36
2022-09-03T03:05:10.427Z,101107.02
2022-09-03T03:07:41.703Z,101101.95
2022-09-03T03:10:10.965Z,101091.27
2022-09-03T03:12:40.585Z,101084.48
2022-09-03T03:15:10.521Z,101081.38
2022-09-03T03:17:39.346Z,101083.48
2022-09-03T03:20:08.889Z,101089.25
2022-09-03T03:22:37.744Z,101089.61
2022-09-03T03:25:07.483Z,101082.84
2022-09-03T03:27:36.481Z,101083.33
2022-09-03T03:30:10.352Z,101088.54
2022-09-03T03:32:40.068Z,101097.27
2022-09-03T03:35:09.164Z,101102.18
2022-09-03T03:37:37.849Z,101109.87
2022-09-03T03:40:07.976Z,101118.42
2022-09-03T03:42:37.164Z,101121.92
2022-09-03T03:45:07.705Z,101122.64
2022-09-03T03:47:37.709Z,101115.51
2022-09-03T03:50:07.345Z,101118.30
2022-09-03T03:52:36.421Z,101115.69
2022-09-03T03:55:07.197Z,101113.56
2022-09-03T03:57:37.420Z,101113.55
2022-09-03T04:00:06.879Z,101109.87
2022-09-03T04:02:43.206Z,101109.72
2022-09-03T04:05:12.343Z,101107.81
2022-09-03T04:07:41.062Z,101110.48
2022-09-03T04:10:10.299Z,101110.46
2022-09-03T04:12:39.021Z,101110.06
2022-09-03T04:15:08.351Z,101116.00
2022-09-03T04:17:36.991Z,101116.88
2022-09-03T04:20:06.397Z,101112.49
2022-09-03T04:22:35.093Z,101107.42
2022-09-03T04:25:04.576Z,101106.19
2022-09-03T04:27:33.287Z,101108.98
2022-09-03T04:30:02.181Z,101115.63
2022-09-03T04:32:52.594Z,101116.00
2022-09-03T04:35:26.301Z,101124.06
2022-09-03T04:37:55.631Z,101128.77
2022-09-03T04:40:24.371Z,101132.23
2022-09-03T04:42:58.326Z,101135.20
2022-09-03T04:45:28.906Z,101142.90
2022-09-03T04:47:59.382Z,101146.75
2022-09-03T04:50:29.303Z,101148.67
2022-09-03T04:53:07.642Z,101146.55
2022-09-03T04:55:38.400Z,101152.14
2022-09-03T04:58:09.955Z,101154.77
2022-09-03T05:00:39.488Z,101157.88
2022-09-03T05:03:08.351Z,101162.75
2022-09-03T05:05:37.142Z,101162.02
2022-09-03T05:08:07.587Z,101161.52
2022-09-03T05:10:36.286Z,101163.11
2022-09-03T05:13:06.549Z,101165.72
2022-09-03T05:15:35.142Z,101163.66
2022-09-03T05:18:04.360Z,101169.12
2022-09-03T05:20:33.288Z,101161.98
2022-09-03T05:23:06.610Z,101163.20
2022-09-03T05:25:35.371Z,101168.44
2022-09-03T05:28:05.573Z,101166.70
2022-09-03T05:30:34.154Z,101168.64
2022-09-03T05:33:04.688Z,101162.86
2022-09-03T05:35:34.605Z,101159.73
2022-09-03T05:38:03.380Z,101156.61
2022-09-03T05:40:32.679Z,101155.07
2022-09-03T05:43:04.306Z,101148.80
2022-09-03T05:45:37.310Z,101157.75
2022-09-03T05:48:05.968Z,101172.44
2022-09-03T05:50:35.224Z,101179.77
2022-09-03T05:53:03.873Z,101186.38
2022-09-03T05:55:32.595Z,101189.50
2022-09-03T05:58:01.472Z,101196.61
2022-09-03T06:00:30.082Z,101204.30
2022-09-03T06:02:59.099Z,101209.00
2022-09-03T06:05:27.738Z,101213.19
2022-09-03T06:07:56.312Z,101219.30
2022-09-03T06:10:27.996Z,101224.75
2022-09-03T06:13:04.312Z,101226.52
2022-09-03T06:15:33.175Z,101230.52
2022-09-03T06:18:01.677Z,101230.52
2022-09-03T06:20:36.403Z,101236.50
2022-09-03T06:23:05.977Z,101241.05
2022-09-03T06:25:34.490Z,101246.45
2022-09-03T06:28:03.245Z,101251.20
2022-09-03T06:30:32.076Z,101251.60
2022-09-03T06:33:00.575Z,101253.55
2022-09-03T06:35:29.572Z,101251.96
2022-09-03T06:38:04.500Z,101250.39
2022-09-03T06:40:33.522Z,101252.31
2022-09-03T06:43:03.540Z,101259.99
2022-09-03T06:45:32.746Z,101268.36
2022-09-03T06:48:01.728Z,101274.29
2022-09-03T06:50:34.039Z,101273.73
2022-09-03T06:53:03.269Z,101274.25
2022-09-03T06:55:31.908Z,101270.73
2022-09-03T06:58:00.455Z,101270.01
2022-09-03T07:00:30.749Z,101269.14
2022-09-03T07:03:00.541Z,101274.39
2022-09-03T07:05:29.422Z,101271.39
2022-09-03T07:07:58.611Z,101269.13
2022-09-03T07:10:28.378Z,101265.48
2022-09-03T07:12:57.095Z,101262.66
2022-09-03T07:15:26.615Z,101263.84
2022-09-03T07:17:55.502Z,101263.81
2022-09-03T07:20:24.148Z,101265.58
2022-09-03T07:22:57.053Z,101263.85
2022-09-03T07:25:27.413Z,101260.89
2022-09-03T07:27:55.986Z,101257.59
2022-09-03T07:30:26.906Z,101253.76
2022-09-03T07:32:55.407Z,101251.89
2022-09-03T07:35:26.160Z,101250.14
2022-09-03T07:37:55.627Z,101253.95
2022-09-03T07:40:24.420Z,101259.55
2022-09-03T07:43:02.337Z,101258.54
2022-09-03T07:45:32.879Z,101258.59
2022-09-03T07:48:01.788Z,101260.36
2022-09-03T07:50:35.076Z,101258.61
2022-09-03T07:53:04.327Z,101255.27
2022-09-03T07:55:33.027Z,101252.86
2022-09-03T07:58:01.624Z,101252.86
2022-09-03T08:00:30.338Z,101257.41
2022-09-03T08:03:04.544Z,101252.36
2022-09-03T08:05:33.682Z,101254.11
2022-09-03T08:08:06.126Z,101253.41
2022-09-03T08:10:36.692Z,101253.95
2022-09-03T08:13:06.040Z,101255.17
2022-09-03T08:15:35.257Z,101256.73
2022-09-03T08:18:05.974Z,101255.36
2022-09-03T08:20:35.385Z,101255.71
2022-09-03T08:23:04.190Z,101252.23
2022-09-03T08:25:33.715Z,101254.00
2022-09-03T08:28:03.233Z,101251.39
2022-09-03T08:30:31.887Z,101252.30
2022-09-03T08:33:05.162Z,101253.00
2022-09-03T08:35:34.894Z,101253.16
2022-09-03T08:38:06.448Z,101252.61
2022-09-03T08:40:39.611Z,101255.93
2022-09-03T08:43:19.197Z,101255.59
2022-09-03T08:45:47.882Z,101257.84
2022-09-03T08:48:25.982Z,101255.73
2022-09-03T08:51:01.133Z,101253.83
2022-09-03T08:53:45.654Z,101256.27
2022-09-03T08:56:24.806Z,101254.17
2022-09-03T08:58:53.441Z,101253.31
2022-09-03T09:01:48.127Z,101251.58
2022-09-03T09:04:35.240Z,101253.67
2022-09-03T09:07:32.129Z,101248.96
2022-09-03T09:10:13.177Z,101249.32
2022-09-03T09:13:02.758Z,101251.58
2022-09-03T09:15:51.208Z,101258.23
2022-09-03T09:18:26.086Z,101267.99
2022-09-03T09:21:27.600Z,101264.47
2022-09-03T09:24:03.926Z,101259.75
2022-09-03T09:26:33.868Z,101260.44
2022-09-03T09:29:10.902Z,101254.32
2022-09-03T09:31:41.067Z,101254.52
2022-09-03T09:34:09.702Z,101255.56
2022-09-03T09:36:56.718Z,101258.16
2022-09-03T09:39:25.474Z,101259.55
2022-09-03T09:42:12.796Z,101266.16
2022-09-03T09:44:43.795Z,101265.77
2022-09-03T09:47:17.463Z,101264.34
2022-09-03T09:49:55.719Z,101267.98
2022-09-03T09:52:28.808Z,101266.94
2022-09-03T09:55:15.183Z,101263.79
2022-09-03T09:57:44.029Z,101264.45
2022-09-03T10:00:17.723Z,101265.48
2022-09-03T10:02:57.587Z,101271.04
2022-09-03T10:05:30.993Z,101276.32
2022-09-03T10:08:18.739Z,101279.67
2022-09-03T10:10:50.457Z,101286.08
2022-09-03T10:13:21.920Z,101283.42
2022-09-03T10:16:01.757Z,101281.31
2022-09-03T10:18:45.412Z,101280.08
2022-09-03T10:21:24.263Z,101285.98
2022-09-03T10:24:16.109Z,101291.58
2022-09-03T10:26:48.044Z,101299.60
2022-09-03T10:29:23.784Z,101296.94
2022-09-03T10:31:54.427Z,101294.80
2022-09-03T10:34:39.386Z,101297.54
2022-09-03T10:37:23.061Z,101304.87
2022-09-03T10:40:21.051Z,101313.42
2022-09-03T10:43:17.736Z,101320.95
2022-09-03T10:46:23.991Z,101325.88
2022-09-03T10:49:21.053Z,101326.75
2022-09-03T10:51:56.218Z,101323.27
2022-09-03T10:54:40.136Z,101320.98
2022-09-03T10:57:39.376Z,101319.40
2022-09-03T11:00:13.001Z,101325.36
2022-09-03T11:03:08.117Z,101325.73
2022-09-03T11:05:49.743Z,101330.08
2022-09-03T11:08:26.045Z,101334.63
2022-09-03T11:11:01.995Z,101337.73
2022-09-03T11:13:36.696Z,101335.83
2022-09-03T11:16:22.934Z,101335.46
2022-09-03T11:19:16.249Z,101335.10
2022-09-03T11:21:46.607Z,101331.06
2022-09-03T11:24:21.830Z,101325.13
2022-09-03T11:27:20.711Z,101321.27
2022-09-03T11:30:01.281Z,101319.48
2022-09-03T11:32:47.123Z,101319.64
2022-09-03T11:35:33.368Z,101318.55
2022-09-03T11:38:03.688Z,101321.48
2022-09-03T11:40:41.796Z,101320.94
2022-09-03T11:43:15.910Z,101318.46
2022-09-03T11:45:44.751Z,101320.02
2022-09-03T11:48:29.768Z,101320.02
2022-09-03T11:50:58.360Z,101319.14
2022-09-03T11:53:35.050Z,101324.89
2022-09-03T11:56:06.991Z,101333.09
2022-09-03T11:58:39.748Z,101338.48
2022-09-03T12:01:18.569Z,101338.45
2022-09-03T12:03:50.049Z,101338.59
2022-09-03T12:06:43.358Z,101337.54
2022-09-03T12:09:33.447Z,101329.84
2022-09-03T12:12:20.522Z,101330.73
2022-09-03T12:15:10.812Z,101330.21
2022-09-03T12:17:50.294Z,101335.99
2022-09-03T12:20:22.113Z,101332.48
2022-09-03T12:22:50.966Z,101332.62
2022-09-03T12:25:20.102Z,101333.66
2022-09-03T12:27:50.180Z,101330.27
2022-09-03T12:30:23.133Z,101330.96
2022-09-03T12:32:52.755Z,101334.47
2022-09-03T12:38:18.611Z,101334.40
2022-09-03T12:43:38.301Z,101325.40
2022-09-03T12:46:16.143Z,101327.48
2022-09-03T12:52:06.099Z,101331.66
2022-09-03T12:54:50.669Z,101331.32
2022-09-03T12:57:22.998Z,101338.87
2022-09-03T12:59:57.786Z,101338.37
2022-09-03T13:02:42.790Z,101342.05
2022-09-03T13:05:17.839Z,101343.09
2022-09-03T13:07:55.860Z,101342.06
2022-09-03T13:10:29.243Z,101341.52
2022-09-03T13:13:16.818Z,101344.85
2022-09-03T13:16:15.938Z,101347.11
2022-09-03T13:19:10.349Z,101348.85
2022-09-03T13:21:51.121Z,101347.95
2022-09-03T13:24:32.131Z,101350.63
2022-09-03T13:27:23.854Z,101354.84
2022-09-03T13:30:07.253Z,101354.33
2022-09-03T13:32:45.100Z,101358.15
2022-09-03T13:35:44.673Z,101361.27
2022-09-03T13:38:37.311Z,101360.38
2022-09-03T13:41:20.040Z,101357.60
2022-09-03T13:43:57.928Z,101358.16
2022-09-03T13:46:36.555Z,101362.21
2022-09-03T13:49:39.752Z,101358.15
2022-09-03T13:52:32.085Z,101358.65
2022-09-03T13:55:13.497Z,101365.46
2022-09-03T13:57:51.885Z,101368.77
2022-09-03T14:00:40.950Z,101374.55
2022-09-03T14:03:39.745Z,101375.27
2022-09-03T14:06:09.193Z,101374.89
2022-09-03T14:09:05.481Z,101370.34
2022-09-03T14:12:11.542Z,101366.67
2022-09-03T14:15:04.603Z,101369.30
2022-09-03T14:17:57.916Z,101373.67
2022-09-03T14:20:40.683Z,101377.88
2022-09-03T14:23:41.777Z,101375.07
2022-09-03T14:26:39.799Z,101377.51
2022-09-03T14:29:17.440Z,101382.05
2022-09-03T14:32:14.861Z,101387.29
2022-09-03T14:35:00.749Z,101387.11
2022-09-03T14:37:42.442Z,101382.73
2022-09-03T14:40:51.009Z,101375.88
2022-09-03T14:43:54.930Z,101373.23
2022-09-03T14:46:55.817Z,101374.63
2022-09-03T14:49:47.340Z,101379.86
2022-09-03T14:52:38.351Z,101381.07
2022-09-03T14:55:44.620Z,101378.77
2022-09-03T14:58:26.320Z,101382.08
2022-09-03T15:01:11.943Z,101376.16
2022-09-03T15:04:03.114Z,101377.99
2022-09-03T15:06:41.033Z,101378.76
2022-09-03T15:09:33.356Z,101377.40
2022-09-03T15:12:10.851Z,101382.70
2022-09-03T15:14:48.120Z,101387.81
2022-09-03T15:17:35.052Z,101387.27
2022-09-03T15:20:41.008Z,101390.79
2022-09-03T15:23:19.926Z,101391.70
2022-09-03T15:26:30.615Z,101391.02
2022-09-03T15:29:20.489Z,101388.58
2022-09-03T15:31:49.567Z,101390.18
2022-09-03T15:34:24.355Z,101391.80
2022-09-03T15:36:55.967Z,101397.24
2022-09-03T15:39:37.553Z,101399.71
2022-09-03T15:42:24.269Z,101400.44
2022-09-03T15:44:55.836Z,101402.00
2022-09-03T15:47:51.640Z,101407.94
2022-09-03T15:50:33.643Z,101410.03
2022-09-03T15:53:16.004Z,101408.27
2022-09-03T15:55:47.227Z,101409.85
2022-09-03T15:58:31.757Z,101410.36
2022-09-03T16:01:03.519Z,101411.23
2022-09-03T16:03:58.864Z,101413.68
2022-09-03T16:06:38.779Z,101412.44
2022-09-03T16:09:31.627Z,101416.27
2022-09-03T16:12:57.404Z,101415.57
2022-09-03T16:15:37.715Z,101413.16
2022-09-03T16:18:49.754Z,101412.66
2022-09-03T16:21:44.140Z,101419.00
2022-09-03T16:24:23.518Z,101424.42
2022-09-03T16:26:57.117Z,101428.64
2022-09-03T16:29:28.515Z,101432.66
2022-09-03T16:32:10.698Z,101435.60
2022-09-03T16:35:24.132Z,101437.15
2022-09-03T16:38:11.137Z,101437.48
2022-09-03T16:41:09.335Z,101442.02
2022-09-03T16:43:47.695Z,101443.36
2022-09-03T16:46:23.771Z,101441.77
2022-09-03T16:49:27.213Z,101443.85
2022-09-03T16:52:37.549Z,101448.38
2022-09-03T16:55:26.411Z,101457.29
2022-09-03T16:58:12.361Z,101461.45
2022-09-03T17:01:22.083Z,101465.33
2022-09-03T17:04:02.530Z,101464.98
2022-09-03T17:06:53.857Z,101469.19
2022-09-03T17:09:25.502Z,101475.02
2022-09-03T17:12:11.727Z,101476.59
2022-09-03T17:15:01.046Z,101483.24
2022-09-03T17:17:43.209Z,101490.27
2022-09-03T17:20:49.653Z,101495.34
2022-09-03T17:23:27.366Z,101504.10
2022-09-03T17:26:12.738Z,101504.96
2022-09-03T17:28:56.563Z,101507.77
2022-09-03T17:31:52.418Z,101516.35
2022-09-03T17:35:08.203Z,101523.73
2022-09-03T17:38:06.381Z,101528.46
2022-09-03T17:40:59.047Z,101534.09
2022-09-03T17:43:37.313Z,101537.10
2022-09-03T17:46:14.234Z,101542.02
2022-09-03T17:48:51.744Z,101537.64
2022-09-03T17:51:40.656Z,101536.60
2022-09-03T17:54:24.798Z,101534.33
2022-09-03T17:57:13.711Z,101532.94
2022-09-03T17:59:46.615Z,101530.33
2022-09-03T18:02:15.532Z,101534.19
2022-09-03T18:04:55.638Z,101533.48
2022-09-03T18:08:05.950Z,101534.86
2022-09-03T18:10:37.812Z,101536.96
2022-09-03T18:13:25.593Z,101538.38
2022-09-03T18:16:02.864Z,101542.94
2022-09-03T18:18:33.390Z,101539.80
2022-09-03T18:21:30.831Z,101534.35
2022-09-03T18:24:51.129Z,101535.92
2022-09-03T18:27:52.784Z,101539.59
2022-09-03T18:30:40.532Z,101542.58
2022-09-03T18:33:27.787Z,101543.27
2022-09-03T18:36:18.475Z,101544.52
2022-09-03T18:39:05.525Z,101543.48
2022-09-03T18:41:52.709Z,101545.25
2022-09-03T18:44:48.920Z,101548.94
2022-09-03T18:48:01.986Z,101549.09
2022-09-03T18:51:24.692Z,101548.75
2022-09-03T18:54:45.087Z,101550.69
2022-09-03T18:58:15.839Z,101548.08
2022-09-03T19:01:30.776Z,101547.02
2022-09-03T19:04:27.041Z,101544.91
2022-09-03T19:07:34.815Z,101542.64
2022-09-03T19:10:29.813Z,101541.77
2022-09-03T19:13:41.697Z,101539.85
2022-09-03T19:16:39.184Z,101541.46
2022-09-03T19:19:58.792Z,101547.09
2022-09-03T19:22:52.992Z,101552.55
2022-09-03T19:25:41.718Z,101554.13
2022-09-03T19:28:44.005Z,101557.29
2022-09-03T19:32:00.036Z,101556.42
2022-09-03T19:34:56.738Z,101557.32
2022-09-03T19:37:51.950Z,101565.55
2022-09-03T19:41:11.583Z,101572.91
2022-09-03T19:44:20.695Z,101578.70
2022-09-03T19:47:16.077Z,101576.07
2022-09-03T19:50:25.229Z,101573.44
2022-09-03T19:53:14.589Z,101575.35
2022-09-03T19:56:11.334Z,101581.14
2022-09-03T19:59:04.696Z,101586.03
2022-09-03T20:01:57.340Z,101590.21
2022-09-03T20:04:55.220Z,101589.33
2022-09-03T20:07:42.845Z,101591.05
2022-09-03T20:10:24.346Z,101592.79
2022-09-03T20:13:14.083Z,101596.27
2022-09-03T20:15:55.946Z,101594.85
2022-09-03T20:18:43.834Z,101595.19
2022-09-03T20:21:27.744Z,101599.02
2022-09-03T20:23:59.940Z,101602.17
2022-09-03T20:26:46.473Z,101609.69
2022-09-03T20:29:30.406Z,101614.58
2022-09-03T20:32:22.441Z,101614.39
2022-09-03T20:35:03.117Z,101618.38
2022-09-03T20:37:48.603Z,101622.39
2022-09-03T20:40:28.846Z,101624.83
2022-09-03T20:43:10.134Z,101622.88
2022-09-03T20:46:00.552Z,101623.23
2022-09-03T20:48:52.151Z,101620.23
2022-09-03T20:51:28.566Z,101619.00
2022-09-03T20:54:09.189Z,101620.58
2022-09-03T20:57:06.136Z,101619.70
2022-09-03T20:59:37.792Z,101621.08
2022-09-03T21:02:18.943Z,101618.27
2022-09-03T21:05:21.242Z,101615.99
2022-09-03T21:08:19.288Z,101613.53
2022-09-03T21:10:56.503Z,101612.67
2022-09-03T21:13:51.099Z,101611.48
2022-09-03T21:16:38.524Z,101611.48
2022-09-03T21:19:33.635Z,101612.55
2022-09-03T21:22:24.434Z,101620.45
2022-09-03T21:24:59.266Z,101622.39
2022-09-03T21:27:34.410Z,101626.41
2022-09-03T21:30:09.375Z,101628.20
2022-09-03T21:32:47.883Z,101628.55
2022-09-03T21:35:39.378Z,101621.39
2022-09-03T21:38:14.657Z,101618.92
2022-09-03T21:41:19.972Z,101625.92
2022-09-03T21:44:16.811Z,101636.24
2022-09-03T21:46:57.399Z,101640.95
2022-09-03T21:49:34.032Z,101638.82
2022-09-03T21:52:08.497Z,101636.52
2022-09-03T21:54:37.566Z,101634.94
2022-09-03T21:57:34.722Z,101630.55
2022-09-03T22:00:20.111Z,101629.84
2022-09-03T22:02:50.397Z,101628.07
2022-09-03T22:05:19.539Z,101627.54
2022-09-03T22:07:57.343Z,101620.19
2022-09-03T22:10:41.061Z,101617.57
2022-09-03T22:13:36.451Z,101616.52
2022-09-03T22:16:30.540Z,101612.15
2022-09-03T22:19:00.093Z,101610.06
2022-09-03T22:21:47.486Z,101604.65
2022-09-03T22:24:27.641Z,101604.46
2022-09-03T22:26:58.493Z,101609.55
2022-09-03T22:29:47.263Z,101608.14
2022-09-03T22:32:40.932Z,101608.52
2022-09-03T22:35:26.593Z,101608.02
2022-09-03T22:38:13.844Z,101609.60
2022-09-03T22:40:53.765Z,101609.45
2022-09-03T22:43:40.579Z,101612.28
2022-09-03T22:46:18.945Z,101617.19
2022-09-03T22:48:58.640Z,101627.54
2022-09-03T22:51:37.167Z,101631.06
2022-09-03T22:54:27.345Z,101635.27
2022-09-03T22:56:58.596Z,101634.20
2022-09-03T22:59:43.898Z,101630.16
2022-09-03T23:02:24.260Z,101635.59
2022-09-03T23:05:07.482Z,101638.21
2022-09-03T23:07:57.768Z,101632.08
2022-09-03T23:10:54.104Z,101633.47
2022-09-03T23:13:31.458Z,101635.91
2022-09-03T23:16:09.550Z,101628.37
2022-09-03T23:18:43.173Z,101630.11
2022-09-03T23:21:26.867Z,101631.68
2022-09-03T23:24:26.430Z,101629.06
2022-09-03T23:26:55.237Z,101627.48
2022-09-03T23:29:46.433Z,101625.56
2022-09-03T23:32:15.529Z,101626.08
2022-09-03T23:34:44.319Z,101625.59
2022-09-03T23:37:42.571Z,101628.91
2022-09-03T23:40:29.821Z,101633.66
2022-09-03T23:43:22.808Z,101638.91
2022-09-03T23:46:00.978Z,101642.08
2022-09-03T23:48:54.769Z,101651.38
2022-09-03T23:51:45.381Z,101655.59
2022-09-03T23:54:26.030Z,101660.50
2022-09-03T23:57:04.273Z,101658.40
2022-09-03T23:59:41.106Z,101662.45
